Archival Weather

Sydney Intl

Sydney, Australia (YSSY)

Report from: Friday, September 22, 2023 4:30 AM AEST
Current time: Sunday, February 25, 2024 2:21 AM AEDT

Current weather – Weather history – Daily summaries
Weather forecast

Present weatherRain showers
Temperature13.0°C (55.4°F)
Dew point11.0°C (51.8°F)
Winds 15 kts (7.7 m/s, 17.3 mph) South-Southwest (210°)
Visibility5.6 mi. (9 km)
Clouds Scattered clouds 3,000 ft. (914 m)
Scattered clouds 4,200 ft. (1,280 m)
Ceiling: Broken clouds 5,500 ft. (1,676 m)
Altimeter30.33 in.Hg (1027 mB)
Relative humidity88 %
Density altitude-517 ft. (-157 m)
Remarks Fully automated report
Flight conditions Visual Meteorological Conditions
Raw dataYSSY 211830Z AUTO 21015KT 9000 SHRA SCT030 SCT042 BKN055 13/11 Q1027
An error has occurred. This application may no longer respond until reloaded. Reload 🗙